createdAt,value
2017-06-12T00:00:29.018Z,967.15
2017-06-12T00:01:29.019Z,967.12
2017-06-12T00:02:29.016Z,967.1
2017-06-12T00:03:29.016Z,967.14
2017-06-12T00:04:29.011Z,967.11
2017-06-12T00:05:29.011Z,967.14
2017-06-12T00:06:29.008Z,967.14
2017-06-12T00:07:29.008Z,967.14
2017-06-12T00:08:29.006Z,967.16
2017-06-12T00:09:29.005Z,967.19
2017-06-12T00:10:29.001Z,967.2
2017-06-12T00:11:29.000Z,967.22
2017-06-12T00:12:29.001Z,967.2
2017-06-12T00:13:28.999Z,967.2
2017-06-12T00:14:28.996Z,967.22
2017-06-12T00:15:28.997Z,967.21
2017-06-12T00:16:28.993Z,967.21
2017-06-12T00:17:28.992Z,967.23
2017-06-12T00:18:28.990Z,967.22
2017-06-12T00:19:28.991Z,967.23
2017-06-12T00:20:28.987Z,967.24
2017-06-12T00:21:28.987Z,967.23
2017-06-12T00:22:28.984Z,967.24
2017-06-12T00:23:28.982Z,967.25
2017-06-12T00:24:28.979Z,967.25
2017-06-12T00:25:28.978Z,967.27
2017-06-12T00:26:28.977Z,967.23
2017-06-12T00:27:28.975Z,967.22
2017-06-12T00:28:28.972Z,967.21
2017-06-12T00:29:28.970Z,967.18
2017-06-12T00:30:28.969Z,967.16
2017-06-12T00:31:28.968Z,967.18
2017-06-12T00:32:28.968Z,967.15
2017-06-12T00:33:28.964Z,967.17
2017-06-12T00:34:28.961Z,967.13
2017-06-12T00:35:28.961Z,967.11
2017-06-12T00:36:28.960Z,967.11
2017-06-12T00:37:28.958Z,967.13
2017-06-12T00:38:28.956Z,967.17
2017-06-12T00:39:28.951Z,967.17
2017-06-12T00:40:28.951Z,967.18
2017-06-12T00:41:28.951Z,967.2
2017-06-12T00:42:28.950Z,967.18
2017-06-12T00:43:28.945Z,967.21
2017-06-12T00:44:28.943Z,967.16
2017-06-12T00:45:28.943Z,967.16
2017-06-12T00:46:28.942Z,967.13
2017-06-12T00:47:28.940Z,967.13
2017-06-12T00:48:28.939Z,967.09
2017-06-12T00:49:28.937Z,967.12
2017-06-12T00:50:28.932Z,967.15
2017-06-12T00:51:28.932Z,967.12
2017-06-12T00:52:28.931Z,967.12
2017-06-12T00:53:28.931Z,967.14
2017-06-12T00:54:28.927Z,967.14
2017-06-12T00:55:28.925Z,967.17
2017-06-12T00:56:28.923Z,967.2
2017-06-12T00:57:28.920Z,967.21
2017-06-12T00:58:28.920Z,967.18
2017-06-12T00:59:28.919Z,967.2
2017-06-12T01:00:28.917Z,967.2
2017-06-12T01:01:28.914Z,967.22
2017-06-12T01:02:28.911Z,967.21
2017-06-12T01:03:28.911Z,967.24
2017-06-12T01:04:28.911Z,967.26
2017-06-12T01:05:28.907Z,967.26
2017-06-12T01:06:28.905Z,967.23
2017-06-12T01:07:28.904Z,967.28
2017-06-12T01:08:28.902Z,967.23
2017-06-12T01:09:28.901Z,967.24
2017-06-12T01:10:28.900Z,967.25
2017-06-12T01:11:28.898Z,967.26
2017-06-12T01:12:28.895Z,967.22
2017-06-12T01:13:28.892Z,967.25
2017-06-12T01:14:28.892Z,967.2
2017-06-12T01:15:28.890Z,967.2
2017-06-12T01:16:28.889Z,967.18
2017-06-12T01:17:28.887Z,967.19
2017-06-12T01:18:28.884Z,967.19
2017-06-12T01:19:28.883Z,967.2
2017-06-12T01:20:28.882Z,967.26
2017-06-12T01:21:28.879Z,967.22
2017-06-12T01:22:28.879Z,967.2
2017-06-12T01:23:28.877Z,967.23
2017-06-12T01:24:28.872Z,967.19
2017-06-12T01:25:28.872Z,967.22
2017-06-12T01:26:28.870Z,967.21
2017-06-12T01:27:28.869Z,967.22
2017-06-12T01:28:28.869Z,967.19
2017-06-12T01:29:28.864Z,967.23
2017-06-12T01:30:28.863Z,967.18
2017-06-12T01:31:28.860Z,967.2
2017-06-12T01:32:28.859Z,967.24
2017-06-12T01:33:28.859Z,967.25
2017-06-12T01:34:28.855Z,967.26
2017-06-12T01:35:28.853Z,967.28
2017-06-12T01:36:28.852Z,967.26
2017-06-12T01:37:28.848Z,967.24
2017-06-12T01:38:28.848Z,967.25
2017-06-12T01:39:28.847Z,967.28
2017-06-12T01:40:28.845Z,967.3
2017-06-12T01:41:28.844Z,967.31
2017-06-12T01:42:28.841Z,967.24
2017-06-12T01:43:28.838Z,967.28
2017-06-12T01:44:28.838Z,967.28
2017-06-12T01:45:28.836Z,967.32
2017-06-12T01:46:28.834Z,967.29
2017-06-12T01:47:28.832Z,967.26
2017-06-12T01:48:28.829Z,967.29
2017-06-12T01:49:28.830Z,967.32
2017-06-12T01:50:28.827Z,967.31
2017-06-12T01:51:28.825Z,967.31
2017-06-12T01:52:28.823Z,967.31
2017-06-12T01:53:28.822Z,967.3
2017-06-12T01:54:28.820Z,967.31
2017-06-12T01:55:28.819Z,967.32
2017-06-12T01:56:28.817Z,967.35
2017-06-12T01:57:28.814Z,967.3
2017-06-12T01:58:28.812Z,967.32
2017-06-12T01:59:28.810Z,967.35
2017-06-12T02:00:28.809Z,967.36
2017-06-12T02:01:28.808Z,967.36
2017-06-12T02:02:28.805Z,967.35
2017-06-12T02:03:28.803Z,967.38
2017-06-12T02:04:28.801Z,967.37
2017-06-12T02:05:28.799Z,967.39
2017-06-12T02:06:28.797Z,967.39
2017-06-12T02:07:28.796Z,967.41
2017-06-12T02:08:28.794Z,967.38
2017-06-12T02:09:28.793Z,967.36
2017-06-12T02:10:28.789Z,967.43
2017-06-12T02:11:28.789Z,967.43
2017-06-12T02:12:28.788Z,967.35
2017-06-12T02:13:28.786Z,967.34
2017-06-12T02:14:28.782Z,967.43
2017-06-12T02:15:28.780Z,967.44
2017-06-12T02:16:28.779Z,967.43
2017-06-12T02:17:28.779Z,967.42
2017-06-12T02:18:28.776Z,967.39
2017-06-12T02:19:28.774Z,967.42
2017-06-12T02:20:28.771Z,967.48
2017-06-12T02:21:28.770Z,967.44
2017-06-12T02:22:28.768Z,967.45
2017-06-12T02:23:28.767Z,967.46
2017-06-12T02:24:28.765Z,967.43
2017-06-12T02:25:28.763Z,967.39
2017-06-12T02:26:28.762Z,967.41
2017-06-12T02:27:28.759Z,967.44
2017-06-12T02:28:28.756Z,967.45
2017-06-12T02:29:28.755Z,967.41
2017-06-12T02:30:28.753Z,967.43
2017-06-12T02:31:28.752Z,967.45
2017-06-12T02:32:28.749Z,967.37
2017-06-12T02:33:28.747Z,967.41
2017-06-12T02:34:28.747Z,967.39
2017-06-12T02:35:28.744Z,967.42
2017-06-12T02:36:28.740Z,967.38
2017-06-12T02:37:28.739Z,967.4
2017-06-12T02:38:28.739Z,967.43
2017-06-12T02:39:28.738Z,967.41
2017-06-12T02:40:28.734Z,967.39
2017-06-12T02:41:28.733Z,967.4
2017-06-12T02:42:28.732Z,967.39
2017-06-12T02:43:28.727Z,967.39
2017-06-12T02:44:28.727Z,967.4
2017-06-12T02:45:28.726Z,967.37
2017-06-12T02:46:28.725Z,967.37
2017-06-12T02:47:28.720Z,967.38
2017-06-12T02:48:28.720Z,967.41
2017-06-12T02:49:28.717Z,967.42
2017-06-12T02:50:28.716Z,967.44
2017-06-12T02:51:28.714Z,967.44
2017-06-12T02:52:28.713Z,967.46
2017-06-12T02:53:28.710Z,967.45
2017-06-12T02:54:28.707Z,967.47
2017-06-12T02:55:28.705Z,967.45
2017-06-12T02:56:28.704Z,967.47
2017-06-12T02:57:28.701Z,967.44
2017-06-12T02:58:28.700Z,967.47
2017-06-12T02:59:28.697Z,967.46
2017-06-12T03:00:28.696Z,967.47
2017-06-12T03:01:28.695Z,967.45
2017-06-12T03:02:28.693Z,967.48
2017-06-12T03:03:28.690Z,967.46
2017-06-12T03:04:28.690Z,967.47
2017-06-12T03:05:28.688Z,967.45
2017-06-12T03:06:28.685Z,967.43
2017-06-12T03:07:28.682Z,967.44
2017-06-12T03:08:28.680Z,967.54
2017-06-12T03:09:28.680Z,967.54
2017-06-12T03:10:28.677Z,967.59
2017-06-12T03:11:28.675Z,967.58
2017-06-12T03:12:28.673Z,967.59
2017-06-12T03:13:28.671Z,967.59
2017-06-12T03:14:28.670Z,967.57
2017-06-12T03:15:28.668Z,967.51
2017-06-12T03:16:28.666Z,967.54
2017-06-12T03:17:28.663Z,967.5
2017-06-12T03:18:28.662Z,967.53
2017-06-12T03:19:28.659Z,967.54
2017-06-12T03:20:28.657Z,967.5
2017-06-12T03:21:28.657Z,967.51
2017-06-12T03:22:28.653Z,967.55
2017-06-12T03:23:28.653Z,967.52
2017-06-12T03:24:28.649Z,967.5
2017-06-12T03:25:28.649Z,967.52
2017-06-12T03:26:28.648Z,967.54
2017-06-12T03:27:28.646Z,967.53
2017-06-12T03:28:28.642Z,967.54
2017-06-12T03:29:28.641Z,967.52
2017-06-12T03:30:28.641Z,967.51
2017-06-12T03:31:28.636Z,967.52
2017-06-12T03:32:28.635Z,967.51
2017-06-12T03:33:28.634Z,967.5
2017-06-12T03:34:28.630Z,967.49
2017-06-12T03:35:28.632Z,967.48
2017-06-12T03:36:28.626Z,967.52
2017-06-12T03:37:28.625Z,967.49
2017-06-12T03:38:28.622Z,967.49
2017-06-12T03:39:28.623Z,967.52
2017-06-12T03:40:28.620Z,967.54
2017-06-12T03:41:28.619Z,967.53
2017-06-12T03:42:28.614Z,967.51
2017-06-12T03:43:28.614Z,967.52
2017-06-12T03:44:28.613Z,967.55
2017-06-12T03:45:28.610Z,967.56
2017-06-12T03:46:28.607Z,967.55
2017-06-12T03:47:28.607Z,967.54
2017-06-12T03:48:28.605Z,967.58
2017-06-12T03:49:28.603Z,967.52
2017-06-12T03:50:28.600Z,967.45
2017-06-12T03:51:28.601Z,967.43
2017-06-12T03:52:28.596Z,967.42
2017-06-12T03:53:28.592Z,967.42
2017-06-12T03:54:28.593Z,967.38
2017-06-12T03:55:28.592Z,967.4
2017-06-12T03:56:28.589Z,967.37
2017-06-12T03:57:28.587Z,967.4
2017-06-12T03:58:28.584Z,967.37
2017-06-12T03:59:28.584Z,967.42
2017-06-12T04:00:28.580Z,967.39
2017-06-12T04:01:28.579Z,967.43
2017-06-12T04:02:28.577Z,967.4
2017-06-12T04:03:28.576Z,967.38
2017-06-12T04:04:28.574Z,967.43
2017-06-12T04:05:28.572Z,967.45
2017-06-12T04:06:28.570Z,967.42
2017-06-12T04:07:28.566Z,967.45
2017-06-12T04:08:28.566Z,967.46
2017-06-12T04:09:28.564Z,967.49
2017-06-12T04:10:28.561Z,967.45
2017-06-12T04:11:28.558Z,967.47
2017-06-12T04:12:28.558Z,967.5
2017-06-12T04:13:28.555Z,967.5
2017-06-12T04:14:28.555Z,967.48
2017-06-12T04:15:28.552Z,967.51
2017-06-12T04:16:28.550Z,967.5
2017-06-12T04:17:28.548Z,967.48
2017-06-12T04:18:28.546Z,967.49
2017-06-12T04:19:28.545Z,967.51
2017-06-12T04:20:28.543Z,967.54
2017-06-12T04:21:28.542Z,967.51
2017-06-12T04:22:28.539Z,967.49
2017-06-12T04:23:28.740Z,967.46
2017-06-12T04:24:28.535Z,967.45
2017-06-12T04:25:28.533Z,967.52
2017-06-12T04:26:28.533Z,967.48
2017-06-12T04:27:28.531Z,967.47
2017-06-12T04:28:28.528Z,967.5
2017-06-12T04:29:28.527Z,967.48
2017-06-12T04:30:28.524Z,967.5
2017-06-12T04:31:28.524Z,967.5
2017-06-12T04:32:28.522Z,967.53
2017-06-12T04:33:28.519Z,967.56
2017-06-12T04:34:28.519Z,967.59
2017-06-12T04:35:28.519Z,967.62
2017-06-12T04:36:28.515Z,967.57
2017-06-12T04:37:28.514Z,967.61
2017-06-12T04:38:28.513Z,967.6
2017-06-12T04:39:28.512Z,967.62
2017-06-12T04:40:28.510Z,967.64
2017-06-12T04:41:28.512Z,967.62
2017-06-12T04:42:28.507Z,967.65
2017-06-12T04:43:28.507Z,967.68
2017-06-12T04:44:28.505Z,967.63
2017-06-12T04:45:28.505Z,967.59
2017-06-12T04:46:28.503Z,967.62
2017-06-12T04:47:28.502Z,967.64
2017-06-12T04:48:28.499Z,967.64
2017-06-12T04:49:28.498Z,967.61
2017-06-12T04:50:28.496Z,967.67
2017-06-12T04:51:28.495Z,967.6
2017-06-12T04:52:28.494Z,967.57
2017-06-12T04:53:28.492Z,967.59
2017-06-12T04:54:28.490Z,967.58
2017-06-12T04:55:28.489Z,967.54
2017-06-12T04:56:28.488Z,967.54
2017-06-12T04:57:28.487Z,967.54
2017-06-12T04:58:28.484Z,967.53
2017-06-12T04:59:28.484Z,967.55
2017-06-12T05:00:28.485Z,967.58
2017-06-12T05:01:28.480Z,967.59
2017-06-12T05:02:28.483Z,967.57
2017-06-12T05:03:28.478Z,967.54
2017-06-12T05:04:28.476Z,967.53
2017-06-12T05:05:28.475Z,967.58
2017-06-12T05:06:28.474Z,967.48
2017-06-12T05:07:28.472Z,967.49
2017-06-12T05:08:28.472Z,967.45
2017-06-12T05:09:28.469Z,967.45
2017-06-12T05:10:28.466Z,967.44
2017-06-12T05:11:28.467Z,967.4
2017-06-12T05:12:28.465Z,967.4
2017-06-12T05:13:28.462Z,967.41
2017-06-12T05:14:28.463Z,967.41
2017-06-12T05:15:28.461Z,967.44
2017-06-12T05:16:28.460Z,967.47
2017-06-12T05:17:28.458Z,967.48
2017-06-12T05:18:28.456Z,967.48
2017-06-12T05:19:28.454Z,967.48
2017-06-12T05:20:28.451Z,967.45
2017-06-12T05:21:28.450Z,967.39
2017-06-12T05:22:28.450Z,967.36
2017-06-12T05:23:28.449Z,967.37
2017-06-12T05:24:28.445Z,967.34
2017-06-12T05:25:28.446Z,967.39
2017-06-12T05:26:28.443Z,967.38
2017-06-12T05:27:28.443Z,967.42
2017-06-12T05:28:28.441Z,967.41
2017-06-12T05:29:28.438Z,967.41
2017-06-12T05:30:28.438Z,967.41
2017-06-12T05:31:28.435Z,967.4
2017-06-12T05:32:28.449Z,967.38
2017-06-12T05:33:28.432Z,967.39
2017-06-12T05:34:28.432Z,967.4
2017-06-12T05:35:28.429Z,967.46
2017-06-12T05:36:28.428Z,967.46
2017-06-12T05:37:28.427Z,967.46
2017-06-12T05:38:28.426Z,967.47
2017-06-12T05:39:28.422Z,967.5
2017-06-12T05:40:28.422Z,967.5
2017-06-12T05:41:28.421Z,967.48
2017-06-12T05:42:28.418Z,967.52
2017-06-12T05:43:28.418Z,967.57
2017-06-12T05:44:28.416Z,967.55
2017-06-12T05:45:28.415Z,967.55
2017-06-12T05:46:28.411Z,967.58
2017-06-12T05:47:28.410Z,967.56
2017-06-12T05:48:28.410Z,967.57
2017-06-12T05:49:28.410Z,967.61
2017-06-12T05:50:28.406Z,967.63
2017-06-12T05:51:28.406Z,967.65
2017-06-12T05:52:28.403Z,967.64
2017-06-12T05:53:28.402Z,967.63
2017-06-12T05:54:28.400Z,967.64
2017-06-12T05:55:28.397Z,967.65
2017-06-12T05:56:28.396Z,967.65
2017-06-12T05:57:28.396Z,967.66
2017-06-12T05:58:28.394Z,967.66
2017-06-12T05:59:28.394Z,967.65
2017-06-12T06:00:28.393Z,967.67
2017-06-12T06:01:28.390Z,967.66
2017-06-12T06:02:28.390Z,967.66
2017-06-12T06:03:28.387Z,967.67
2017-06-12T06:04:28.387Z,967.68
2017-06-12T06:05:28.385Z,967.67
2017-06-12T06:06:28.383Z,967.6
2017-06-12T06:07:28.382Z,967.65
2017-06-12T06:08:28.380Z,967.63
2017-06-12T06:09:28.380Z,967.63
2017-06-12T06:10:28.378Z,967.68
2017-06-12T06:11:28.377Z,967.65
2017-06-12T06:12:28.375Z,967.63
2017-06-12T06:13:28.374Z,967.63
2017-06-12T06:14:28.372Z,967.64
2017-06-12T06:15:28.371Z,967.65
2017-06-12T06:16:28.371Z,967.65
2017-06-12T06:17:28.370Z,967.68
2017-06-12T06:18:28.370Z,967.67
2017-06-12T06:19:28.367Z,967.69
2017-06-12T06:20:28.364Z,967.7
2017-06-12T06:21:28.364Z,967.7
2017-06-12T06:22:28.363Z,967.69
2017-06-12T06:23:28.360Z,967.68
2017-06-12T06:24:28.360Z,967.68
2017-06-12T06:25:28.358Z,967.7
2017-06-12T06:26:28.357Z,967.7
2017-06-12T06:27:28.355Z,967.72
2017-06-12T06:28:28.355Z,967.73
2017-06-12T06:29:28.354Z,967.75
2017-06-12T06:30:28.350Z,967.73
2017-06-12T06:31:28.349Z,967.74
2017-06-12T06:32:28.348Z,967.77
2017-06-12T06:33:28.347Z,967.77
2017-06-12T06:34:28.347Z,967.74
2017-06-12T06:35:28.344Z,967.75
2017-06-12T06:36:28.342Z,967.69
2017-06-12T06:37:28.341Z,967.67
2017-06-12T06:38:28.339Z,967.69
2017-06-12T06:39:28.339Z,967.7
2017-06-12T06:40:28.340Z,967.73
2017-06-12T06:41:28.335Z,967.75
2017-06-12T06:42:28.334Z,967.8
2017-06-12T06:43:28.334Z,967.77
2017-06-12T06:44:28.333Z,967.8
2017-06-12T06:45:28.330Z,967.76
2017-06-12T06:46:28.330Z,967.77
2017-06-12T06:47:28.328Z,967.76
2017-06-12T06:48:28.324Z,967.72
2017-06-12T06:49:28.324Z,967.75
2017-06-12T06:50:28.322Z,967.72
2017-06-12T06:51:28.322Z,967.72
2017-06-12T06:52:28.319Z,967.73
2017-06-12T06:53:28.318Z,967.73
2017-06-12T06:54:28.315Z,967.72
2017-06-12T06:55:28.314Z,967.71
2017-06-12T06:56:28.314Z,967.73
2017-06-12T06:57:28.313Z,967.7
2017-06-12T06:58:28.310Z,967.76
2017-06-12T06:59:28.308Z,967.75
2017-06-12T07:00:28.308Z,967.77
2017-06-12T07:01:28.306Z,967.77
2017-06-12T07:02:28.304Z,967.77
2017-06-12T07:03:28.302Z,967.74
2017-06-12T07:04:28.301Z,967.78
2017-06-12T07:05:28.299Z,967.78
2017-06-12T07:06:28.298Z,967.79
2017-06-12T07:07:28.296Z,967.8
2017-06-12T07:08:28.295Z,967.82
2017-06-12T07:09:28.292Z,967.8
2017-06-12T07:10:28.291Z,967.81
2017-06-12T07:11:28.289Z,967.84
2017-06-12T07:12:28.289Z,967.81
2017-06-12T07:13:28.287Z,967.84
2017-06-12T07:14:28.284Z,967.84
2017-06-12T07:15:28.284Z,967.84
2017-06-12T07:16:28.282Z,967.83
2017-06-12T07:17:28.280Z,967.88
2017-06-12T07:18:28.277Z,967.9
2017-06-12T07:19:28.278Z,967.89
2017-06-12T07:20:28.277Z,967.88
2017-06-12T07:21:28.274Z,967.9
2017-06-12T07:22:28.271Z,967.89
2017-06-12T07:23:28.271Z,967.89
2017-06-12T07:24:28.272Z,967.93
2017-06-12T07:25:28.269Z,967.94
2017-06-12T07:26:28.264Z,967.96
2017-06-12T07:27:28.263Z,967.95
2017-06-12T07:28:28.261Z,967.97
2017-06-12T07:29:28.260Z,968
2017-06-12T07:30:28.259Z,967.97
2017-06-12T07:31:28.258Z,967.98
2017-06-12T07:32:28.255Z,967.96
2017-06-12T07:33:28.253Z,967.95
2017-06-12T07:34:28.251Z,967.98
2017-06-12T07:35:28.251Z,967.96
2017-06-12T07:36:28.249Z,967.99
2017-06-12T07:37:28.248Z,967.96
2017-06-12T07:38:28.246Z,967.99
2017-06-12T07:39:28.243Z,967.94
2017-06-12T07:40:28.243Z,967.91
2017-06-12T07:41:28.241Z,967.91
2017-06-12T07:42:28.241Z,967.93
2017-06-12T07:43:28.238Z,967.97
2017-06-12T07:44:28.237Z,967.97
2017-06-12T07:45:28.236Z,967.94
2017-06-12T07:46:28.233Z,967.97
2017-06-12T07:47:28.232Z,967.95
2017-06-12T07:48:28.230Z,967.91
2017-06-12T07:49:28.230Z,967.87
2017-06-12T07:50:28.227Z,967.89
2017-06-12T07:51:28.228Z,967.88
2017-06-12T07:52:28.222Z,967.88
2017-06-12T07:53:28.223Z,967.89
2017-06-12T07:54:28.220Z,967.89
2017-06-12T07:55:28.220Z,967.85
2017-06-12T07:56:28.218Z,967.84
2017-06-12T07:57:28.217Z,967.82
2017-06-12T07:58:28.214Z,967.81
2017-06-12T07:59:28.211Z,967.78
2017-06-12T08:00:28.212Z,967.76
2017-06-12T08:01:28.209Z,967.79
2017-06-12T08:02:28.208Z,967.83
2017-06-12T08:03:28.207Z,967.84
2017-06-12T08:04:28.206Z,967.82
2017-06-12T08:05:28.202Z,967.84
2017-06-12T08:06:28.201Z,967.83
2017-06-12T08:07:28.201Z,967.81
2017-06-12T08:08:28.199Z,967.8
2017-06-12T08:09:28.198Z,967.82
2017-06-12T08:10:28.194Z,967.85
2017-06-12T08:11:28.194Z,967.88
2017-06-12T08:12:28.192Z,967.91
2017-06-12T08:13:28.192Z,967.9
2017-06-12T08:14:28.188Z,967.95
2017-06-12T08:15:28.187Z,967.94
2017-06-12T08:16:28.185Z,967.96
2017-06-12T08:17:28.185Z,967.96
2017-06-12T08:18:28.184Z,968
2017-06-12T08:19:28.185Z,967.99
2017-06-12T08:20:28.180Z,967.98
2017-06-12T08:21:28.179Z,968.02
2017-06-12T08:22:28.178Z,968
2017-06-12T08:23:28.177Z,968.02
2017-06-12T08:24:28.174Z,968.02
2017-06-12T08:25:28.171Z,967.95
2017-06-12T08:26:28.172Z,968
2017-06-12T08:27:28.170Z,967.96
2017-06-12T08:28:28.168Z,967.98
2017-06-12T08:29:28.167Z,967.98
2017-06-12T08:30:28.164Z,967.93
2017-06-12T08:31:28.164Z,967.9
2017-06-12T08:32:28.163Z,967.91
2017-06-12T08:33:28.162Z,967.95
2017-06-12T08:34:28.159Z,967.92
2017-06-12T08:35:28.157Z,967.9
2017-06-12T08:36:28.156Z,967.87
2017-06-12T08:37:28.157Z,967.9
2017-06-12T08:38:28.154Z,967.88
2017-06-12T08:39:28.160Z,967.9
2017-06-12T08:40:28.154Z,967.91
2017-06-12T08:41:28.151Z,967.89
2017-06-12T08:42:28.149Z,967.97
2017-06-12T08:43:28.148Z,967.94
2017-06-12T08:44:28.149Z,967.99
2017-06-12T08:45:28.147Z,968
2017-06-12T08:46:28.146Z,967.99
2017-06-12T08:47:28.143Z,967.96
2017-06-12T08:48:28.143Z,967.98
2017-06-12T08:49:28.142Z,968.01
2017-06-12T08:50:28.142Z,967.99
2017-06-12T08:51:28.141Z,967.98
2017-06-12T08:52:28.139Z,967.95
2017-06-12T08:53:28.138Z,967.98
2017-06-12T08:54:28.138Z,967.98
2017-06-12T08:55:28.136Z,967.94
2017-06-12T08:56:28.137Z,967.98
2017-06-12T08:57:28.137Z,968.01
2017-06-12T08:58:28.133Z,968.03
2017-06-12T08:59:28.131Z,968.02
2017-06-12T09:00:28.132Z,968.06
2017-06-12T09:01:28.131Z,968.01
2017-06-12T09:02:28.129Z,968.03
2017-06-12T09:03:28.128Z,968.03
2017-06-12T09:04:28.127Z,968.09
2017-06-12T09:05:28.127Z,968.14
2017-06-12T09:06:28.127Z,968.13
2017-06-12T09:07:28.125Z,968.09
2017-06-12T09:08:28.123Z,968.13
2017-06-12T09:09:28.123Z,968.13
2017-06-12T09:10:28.125Z,968.1
2017-06-12T09:11:28.124Z,968.11
2017-06-12T09:12:28.123Z,968.1
2017-06-12T09:13:28.122Z,968.09
2017-06-12T09:14:28.121Z,968.1
2017-06-12T09:15:28.120Z,968.08
2017-06-12T09:16:28.122Z,968.06
2017-06-12T09:17:28.119Z,968.09
2017-06-12T09:18:28.117Z,968.03
2017-06-12T09:19:28.117Z,968.06
2017-06-12T09:20:28.118Z,968.06
2017-06-12T09:21:28.118Z,968.09
2017-06-12T09:22:28.116Z,968.09
2017-06-12T09:23:28.115Z,968.02
2017-06-12T09:24:28.115Z,968.04
2017-06-12T09:25:28.113Z,968.06
2017-06-12T09:26:28.113Z,968.04
2017-06-12T09:27:28.112Z,968.05
2017-06-12T09:28:28.112Z,968.09
2017-06-12T09:29:28.111Z,968.04
2017-06-12T09:30:28.112Z,968.01
2017-06-12T09:31:28.112Z,968.05
2017-06-12T09:32:28.111Z,968.03
2017-06-12T09:33:28.112Z,967.98
2017-06-12T09:34:28.109Z,968.03
2017-06-12T09:35:28.109Z,967.98
2017-06-12T09:36:28.107Z,968
2017-06-12T09:37:28.109Z,967.99
2017-06-12T09:38:28.108Z,967.99
2017-06-12T09:39:28.108Z,968.01
2017-06-12T09:40:28.107Z,968.03
2017-06-12T09:41:28.108Z,968
2017-06-12T09:42:28.106Z,967.98
2017-06-12T09:43:28.106Z,967.99
2017-06-12T09:44:28.106Z,967.98
2017-06-12T09:45:28.106Z,967.96
2017-06-12T09:46:28.106Z,967.99
2017-06-12T09:47:28.106Z,967.98
2017-06-12T09:48:28.106Z,967.93
2017-06-12T09:49:28.105Z,967.94
2017-06-12T09:50:28.105Z,967.93
2017-06-12T09:51:28.105Z,967.92
2017-06-12T09:52:28.105Z,967.96
2017-06-12T09:53:28.103Z,967.99
2017-06-12T09:54:28.106Z,967.96
2017-06-12T09:55:28.103Z,967.99
2017-06-12T09:56:28.102Z,967.98
2017-06-12T09:57:28.103Z,967.97
2017-06-12T09:58:28.100Z,967.96
2017-06-12T09:59:28.102Z,967.88
2017-06-12T10:00:28.102Z,967.88
2017-06-12T10:01:28.100Z,967.91
2017-06-12T10:02:28.099Z,967.89
2017-06-12T10:03:28.099Z,967.89
2017-06-12T10:04:28.098Z,967.9
2017-06-12T10:05:28.098Z,967.9
2017-06-12T10:06:28.097Z,967.83
2017-06-12T10:07:28.098Z,967.82
2017-06-12T10:08:28.098Z,967.8
2017-06-12T10:09:28.096Z,967.79
2017-06-12T10:10:28.095Z,967.79
2017-06-12T10:11:28.095Z,967.79
2017-06-12T10:12:28.095Z,967.8
2017-06-12T10:13:28.095Z,967.78
2017-06-12T10:14:28.094Z,967.8
2017-06-12T10:15:28.093Z,967.82
2017-06-12T10:16:28.090Z,967.85
2017-06-12T10:17:28.090Z,967.85
2017-06-12T10:18:28.090Z,967.83
2017-06-12T10:19:28.091Z,967.89
2017-06-12T10:20:28.090Z,967.87
2017-06-12T10:21:28.088Z,967.87
2017-06-12T10:22:28.089Z,967.85
2017-06-12T10:23:28.087Z,967.85
2017-06-12T10:24:28.085Z,967.86
2017-06-12T10:25:28.085Z,967.89
2017-06-12T10:26:28.084Z,967.92
2017-06-12T10:27:28.083Z,968.02
2017-06-12T10:28:28.082Z,967.98
2017-06-12T10:29:28.082Z,967.95
2017-06-12T10:30:28.082Z,967.93
2017-06-12T10:31:28.081Z,967.96
2017-06-12T10:32:28.080Z,967.91
2017-06-12T10:33:28.079Z,967.93
2017-06-12T10:34:28.078Z,967.91
2017-06-12T10:35:28.077Z,967.9
2017-06-12T10:36:28.076Z,967.86
2017-06-12T10:37:28.078Z,967.85
2017-06-12T10:38:28.074Z,967.86
2017-06-12T10:39:28.074Z,967.82
2017-06-12T10:40:28.073Z,967.83
2017-06-12T10:41:28.074Z,967.81
2017-06-12T10:42:28.072Z,967.78
2017-06-12T10:43:28.072Z,967.83
2017-06-12T10:44:28.071Z,967.81
2017-06-12T10:45:28.070Z,967.81
2017-06-12T10:46:28.070Z,967.76
2017-06-12T10:47:28.070Z,967.79
2017-06-12T10:48:28.070Z,967.75
2017-06-12T10:49:28.069Z,967.79
2017-06-12T10:50:28.066Z,967.78
2017-06-12T10:51:28.067Z,967.77
2017-06-12T10:52:28.066Z,967.76
2017-06-12T10:53:28.065Z,967.72
2017-06-12T10:54:28.066Z,967.75
2017-06-12T10:55:28.065Z,967.77
2017-06-12T10:56:28.063Z,967.73
2017-06-12T10:57:28.063Z,967.71
2017-06-12T10:58:28.063Z,967.67
2017-06-12T10:59:28.063Z,967.65
2017-06-12T11:00:28.062Z,967.68
2017-06-12T11:01:28.062Z,967.67
2017-06-12T11:02:28.062Z,967.66
2017-06-12T11:03:28.060Z,967.66
2017-06-12T11:04:28.061Z,967.64
2017-06-12T11:05:28.060Z,967.65
2017-06-12T11:06:28.059Z,967.63
2017-06-12T11:07:28.058Z,967.57
2017-06-12T11:08:28.058Z,967.61
2017-06-12T11:09:28.058Z,967.61
2017-06-12T11:10:28.058Z,967.65
2017-06-12T11:11:28.057Z,967.61
2017-06-12T11:12:28.055Z,967.62
2017-06-12T11:13:28.056Z,967.65
2017-06-12T11:14:28.057Z,967.65
2017-06-12T11:15:28.055Z,967.63
2017-06-12T11:16:28.055Z,967.59
2017-06-12T11:17:28.054Z,967.56
2017-06-12T11:18:28.052Z,967.59
2017-06-12T11:19:28.054Z,967.57
2017-06-12T11:20:28.054Z,967.55
2017-06-12T11:21:28.054Z,967.51
2017-06-12T11:22:28.053Z,967.49
2017-06-12T11:23:28.049Z,967.46
2017-06-12T11:24:28.052Z,967.44
2017-06-12T11:25:28.050Z,967.44
2017-06-12T11:26:28.049Z,967.48
2017-06-12T11:27:28.048Z,967.51
2017-06-12T11:28:28.050Z,967.49
2017-06-12T11:29:28.050Z,967.51
2017-06-12T11:30:28.047Z,967.51
2017-06-12T11:31:28.046Z,967.55
2017-06-12T11:32:28.046Z,967.48
2017-06-12T11:33:28.045Z,967.43
2017-06-12T11:34:28.044Z,967.48
2017-06-12T11:35:28.045Z,967.43
2017-06-12T11:36:28.042Z,967.45
2017-06-12T11:37:28.044Z,967.44
2017-06-12T11:38:28.042Z,967.49
2017-06-12T11:39:28.042Z,967.48
2017-06-12T11:40:28.041Z,967.46
2017-06-12T11:41:28.042Z,967.44
2017-06-12T11:42:28.040Z,967.46
2017-06-12T11:43:28.041Z,967.38
2017-06-12T11:44:28.037Z,967.41
2017-06-12T11:45:28.038Z,967.32
2017-06-12T11:46:28.039Z,967.32
2017-06-12T11:47:28.037Z,967.36
2017-06-12T11:48:28.036Z,967.33
2017-06-12T11:49:28.036Z,967.26
2017-06-12T11:50:28.034Z,967.27
2017-06-12T11:51:28.033Z,967.32
2017-06-12T11:52:28.032Z,967.36
2017-06-12T11:53:28.033Z,967.34
2017-06-12T11:54:28.032Z,967.4
2017-06-12T11:55:28.031Z,967.37
2017-06-12T11:56:28.031Z,967.39
2017-06-12T11:57:28.029Z,967.37
2017-06-12T11:58:28.030Z,967.36
2017-06-12T11:59:28.028Z,967.36
2017-06-12T12:00:28.028Z,967.29
2017-06-12T12:01:28.027Z,967.38
2017-06-12T12:02:28.026Z,967.43
2017-06-12T12:03:28.024Z,967.37
2017-06-12T12:04:28.024Z,967.32
2017-06-12T12:05:28.023Z,967.33
2017-06-12T12:06:28.023Z,967.31
2017-06-12T12:07:28.024Z,967.35
2017-06-12T12:08:28.022Z,967.41
2017-06-12T12:09:28.021Z,967.38
2017-06-12T12:10:28.022Z,967.38
2017-06-12T12:11:28.020Z,967.28
2017-06-12T12:12:28.021Z,967.32
2017-06-12T12:13:28.020Z,967.4
2017-06-12T12:14:28.019Z,967.34
2017-06-12T12:15:28.018Z,967.39
2017-06-12T12:16:28.017Z,967.26
2017-06-12T12:17:28.017Z,967.3
2017-06-12T12:18:28.017Z,967.26
2017-06-12T12:19:28.016Z,967.23
2017-06-12T12:20:28.017Z,967.22
2017-06-12T12:21:28.014Z,967.23
2017-06-12T12:22:28.014Z,967.3
2017-06-12T12:23:28.015Z,967.29
2017-06-12T12:24:28.013Z,967.31
2017-06-12T12:25:28.013Z,967.23
2017-06-12T12:26:28.012Z,967.2
2017-06-12T12:27:28.012Z,967.28
2017-06-12T12:28:28.010Z,967.26
2017-06-12T12:29:28.011Z,967.26
2017-06-12T12:30:28.010Z,967.27
2017-06-12T12:31:28.010Z,967.28